createdAt,value
2022-08-12T00:01:07.533Z,429
2022-08-12T00:02:07.980Z,430
2022-08-12T00:03:07.761Z,416
2022-08-12T00:04:07.816Z,419
2022-08-12T00:06:07.655Z,414
2022-08-12T00:07:08.129Z,419
2022-08-12T00:08:07.297Z,412
2022-08-12T00:09:07.002Z,407
2022-08-12T00:10:07.615Z,423
2022-08-12T00:11:12.483Z,435
2022-08-12T00:12:07.515Z,432
2022-08-12T00:14:08.057Z,428
2022-08-12T00:15:07.508Z,422
2022-08-12T00:16:07.303Z,413
2022-08-12T00:17:07.745Z,410
2022-08-12T00:19:07.380Z,418
2022-08-12T00:20:08.040Z,423
2022-08-12T00:21:07.545Z,427
2022-08-12T00:22:07.695Z,420
2022-08-12T00:23:07.583Z,417
2022-08-12T00:24:07.187Z,415
2022-08-12T00:26:22.447Z,433
2022-08-12T00:27:07.729Z,398
2022-08-12T00:28:07.607Z,400
2022-08-12T00:29:07.895Z,405
2022-08-12T00:30:07.563Z,408
2022-08-12T00:31:07.094Z,413
2022-08-12T00:32:08.073Z,424
2022-08-12T00:33:07.370Z,419
2022-08-12T00:34:07.370Z,407
2022-08-12T00:35:08.655Z,415
2022-08-12T00:36:07.754Z,411
2022-08-12T00:37:13.471Z,412
2022-08-12T00:38:08.231Z,419
2022-08-12T00:39:07.761Z,424
2022-08-12T00:40:11.128Z,395
2022-08-12T00:41:06.978Z,445
2022-08-12T00:42:07.644Z,406
2022-08-12T00:44:07.138Z,418
2022-08-12T00:45:07.777Z,423
2022-08-12T00:46:07.330Z,426
2022-08-12T00:47:07.654Z,417
2022-08-12T00:48:07.654Z,421
2022-08-12T00:49:07.144Z,423
2022-08-12T00:50:07.537Z,433
2022-08-12T00:51:06.994Z,423
2022-08-12T00:52:07.345Z,407
2022-08-12T00:54:07.712Z,409
2022-08-12T00:55:07.232Z,415
2022-08-12T00:56:07.679Z,439
2022-08-12T00:57:07.388Z,417
2022-08-12T00:58:07.519Z,419
2022-08-12T00:59:07.458Z,415
2022-08-12T01:00:09.249Z,419
2022-08-12T01:01:08.026Z,414
2022-08-12T01:02:12.202Z,405
2022-08-12T01:03:07.407Z,416
2022-08-12T01:04:07.639Z,415
2022-08-12T01:05:07.580Z,422
2022-08-12T01:06:07.971Z,424
2022-08-12T01:07:07.407Z,423
2022-08-12T01:08:07.956Z,421
2022-08-12T01:09:07.313Z,412
2022-08-12T01:10:07.681Z,411
2022-08-12T01:11:07.970Z,417
2022-08-12T01:12:07.352Z,429
2022-08-12T01:13:19.966Z,425
2022-08-12T01:14:07.670Z,421
2022-08-12T01:15:07.924Z,414
2022-08-12T01:16:07.041Z,415
2022-08-12T01:17:07.312Z,407
2022-08-12T01:18:07.684Z,411
2022-08-12T01:19:07.339Z,413
2022-08-12T01:21:07.342Z,402
2022-08-12T01:22:07.757Z,398
2022-08-12T01:23:07.099Z,423
2022-08-12T01:24:29.671Z,410
2022-08-12T01:25:07.188Z,399
2022-08-12T01:26:07.411Z,441
2022-08-12T01:27:08.100Z,427
2022-08-12T01:28:07.665Z,417
2022-08-12T01:29:07.174Z,414
2022-08-12T01:30:07.364Z,417
2022-08-12T01:31:07.684Z,409
2022-08-12T01:32:07.210Z,416
2022-08-12T01:33:07.392Z,426
2022-08-12T01:34:28.737Z,428
2022-08-12T01:35:07.078Z,424
2022-08-12T01:36:08.355Z,422
2022-08-12T01:37:07.450Z,410
2022-08-12T01:38:07.665Z,402
2022-08-12T01:40:33.932Z,407
2022-08-12T01:41:07.715Z,413
2022-08-12T01:42:07.666Z,411
2022-08-12T01:43:07.437Z,414
2022-08-12T01:44:07.970Z,418
2022-08-12T01:45:07.748Z,411
2022-08-12T01:46:07.241Z,407
2022-08-12T01:48:07.657Z,411
2022-08-12T01:49:07.782Z,415
2022-08-12T01:51:07.756Z,420
2022-08-12T01:52:20.770Z,421
2022-08-12T01:53:07.427Z,412
2022-08-12T01:54:07.663Z,415
2022-08-12T01:55:07.166Z,424
2022-08-12T01:56:07.385Z,398
2022-08-12T01:57:07.372Z,395
2022-08-12T01:58:07.054Z,408
2022-08-12T01:59:08.062Z,405
2022-08-12T02:00:08.017Z,412
2022-08-12T02:01:07.496Z,409
2022-08-12T02:02:06.947Z,406
2022-08-12T02:03:07.628Z,412
2022-08-12T02:04:07.201Z,405
2022-08-12T02:05:07.787Z,415
2022-08-12T02:06:07.847Z,409
2022-08-12T02:07:07.252Z,408
2022-08-12T02:08:07.447Z,395
2022-08-12T02:09:07.237Z,402
2022-08-12T02:10:07.562Z,408
2022-08-12T02:11:07.457Z,412
2022-08-12T02:12:08.498Z,407
2022-08-12T02:13:07.382Z,401
2022-08-12T02:14:07.718Z,409
2022-08-12T02:15:08.355Z,406
2022-08-12T02:16:07.530Z,403
2022-08-12T02:17:07.616Z,412
2022-08-12T02:19:21.995Z,422
2022-08-12T02:20:07.576Z,419
2022-08-12T02:21:07.075Z,423
2022-08-12T02:22:07.397Z,424
2022-08-12T02:23:08.080Z,427
2022-08-12T02:24:07.650Z,424
2022-08-12T02:26:07.578Z,413
2022-08-12T02:27:07.995Z,411
2022-08-12T02:28:07.927Z,409
2022-08-12T02:29:07.668Z,408
2022-08-12T02:30:08.280Z,412
2022-08-12T02:31:07.772Z,411
2022-08-12T02:32:07.198Z,409
2022-08-12T02:33:07.429Z,416
2022-08-12T02:34:08.031Z,422
2022-08-12T02:35:07.688Z,416
2022-08-12T02:36:07.138Z,406
2022-08-12T02:37:07.435Z,408
2022-08-12T02:38:07.616Z,411
2022-08-12T02:39:07.794Z,403
2022-08-12T02:40:07.345Z,409
2022-08-12T02:41:07.625Z,407
2022-08-12T02:42:07.802Z,429
2022-08-12T02:43:07.100Z,389
2022-08-12T02:44:07.710Z,399
2022-08-12T02:45:07.355Z,408
2022-08-12T02:46:13.203Z,414
2022-08-12T02:47:07.048Z,417
2022-08-12T02:48:07.340Z,418
2022-08-12T02:49:07.586Z,415
2022-08-12T02:50:07.825Z,409
2022-08-12T02:51:07.147Z,403
2022-08-12T02:52:07.473Z,409
2022-08-12T02:53:07.814Z,408
2022-08-12T02:54:07.542Z,409
2022-08-12T02:55:07.707Z,414
2022-08-12T02:56:07.419Z,421
2022-08-12T02:57:07.641Z,411
2022-08-12T02:58:12.077Z,425
2022-08-12T02:59:07.751Z,401
2022-08-12T03:00:07.758Z,398
2022-08-12T03:02:07.388Z,406
2022-08-12T03:03:07.840Z,413
2022-08-12T03:04:07.356Z,404
2022-08-12T03:05:07.184Z,398
2022-08-12T03:06:07.302Z,407
2022-08-12T03:07:07.705Z,402
2022-08-12T03:08:07.413Z,405
2022-08-12T03:09:09.359Z,407
2022-08-12T03:10:07.320Z,424
2022-08-12T03:12:07.086Z,417
2022-08-12T03:13:15.643Z,411
2022-08-12T03:14:07.154Z,405
2022-08-12T03:15:07.488Z,407
2022-08-12T03:16:07.668Z,410
2022-08-12T03:17:07.242Z,414
2022-08-12T03:18:24.843Z,425
2022-08-12T03:19:07.559Z,429
2022-08-12T03:20:08.851Z,413
2022-08-12T03:21:07.112Z,412
2022-08-12T03:22:09.132Z,417
2022-08-12T03:23:07.358Z,416
2022-08-12T03:24:07.321Z,409
2022-08-12T03:25:07.263Z,414
2022-08-12T03:26:07.652Z,426
2022-08-12T03:27:07.790Z,421
2022-08-12T03:28:07.327Z,418
2022-08-12T03:29:08.129Z,424
2022-08-12T03:30:07.709Z,427
2022-08-12T03:31:07.455Z,411
2022-08-12T03:32:07.906Z,409
2022-08-12T03:33:07.168Z,417
2022-08-12T03:34:07.671Z,424
2022-08-12T03:35:07.611Z,422
2022-08-12T03:36:07.833Z,424
2022-08-12T03:37:07.538Z,425
2022-08-12T03:38:09.510Z,438
2022-08-12T03:39:07.368Z,422
2022-08-12T03:40:07.651Z,421
2022-08-12T03:41:07.340Z,407
2022-08-12T03:42:07.782Z,419
2022-08-12T03:44:07.129Z,425
2022-08-12T03:45:07.719Z,423
2022-08-12T03:46:07.340Z,425
2022-08-12T03:47:29.255Z,417
2022-08-12T03:48:07.570Z,425
2022-08-12T03:49:07.419Z,411
2022-08-12T03:50:07.837Z,412
2022-08-12T03:51:07.144Z,416
2022-08-12T03:52:07.664Z,427
2022-08-12T03:53:07.059Z,425
2022-08-12T03:55:07.847Z,423
2022-08-12T03:56:07.131Z,411
2022-08-12T03:57:07.627Z,420
2022-08-12T03:58:07.320Z,427
2022-08-12T03:59:07.769Z,426
2022-08-12T04:00:07.882Z,435
2022-08-12T04:01:07.806Z,436
2022-08-12T04:02:07.289Z,411
2022-08-12T04:03:12.741Z,418
2022-08-12T04:04:07.486Z,431
2022-08-12T04:05:07.611Z,424
2022-08-12T04:06:08.182Z,419
2022-08-12T04:07:07.706Z,428
2022-08-12T04:08:07.118Z,426
2022-08-12T04:09:15.748Z,427
2022-08-12T04:10:07.479Z,434
2022-08-12T04:11:07.866Z,440
2022-08-12T04:12:07.408Z,444
2022-08-12T04:13:07.934Z,426
2022-08-12T04:14:07.451Z,430
2022-08-12T04:15:07.633Z,438
2022-08-12T04:16:07.149Z,428
2022-08-12T04:17:07.544Z,421
2022-08-12T04:18:08.006Z,441
2022-08-12T04:19:07.222Z,417
2022-08-12T04:20:07.718Z,422
2022-08-12T04:22:07.738Z,414
2022-08-12T04:23:07.104Z,416
2022-08-12T04:24:07.561Z,422
2022-08-12T04:25:07.113Z,428
2022-08-12T04:26:07.448Z,418
2022-08-12T04:27:07.230Z,420
2022-08-12T04:28:13.025Z,434
2022-08-12T04:29:07.418Z,433
2022-08-12T04:30:16.726Z,431
2022-08-12T04:31:11.594Z,425
2022-08-12T04:32:07.084Z,421
2022-08-12T04:33:07.769Z,424
2022-08-12T04:34:07.329Z,426
2022-08-12T04:35:07.796Z,414
2022-08-12T04:36:07.620Z,424
2022-08-12T04:37:07.123Z,414
2022-08-12T04:38:07.711Z,416
2022-08-12T04:39:07.214Z,424
2022-08-12T04:40:07.494Z,422
2022-08-12T04:41:06.886Z,427
2022-08-12T04:42:07.635Z,429
2022-08-12T04:44:00.875Z,424
2022-08-12T04:44:09.549Z,418
2022-08-12T04:45:07.412Z,420
2022-08-12T04:46:07.207Z,414
2022-08-12T04:47:07.474Z,415
2022-08-12T04:48:07.789Z,427
2022-08-12T04:49:07.798Z,423
2022-08-12T04:50:35.264Z,402
2022-08-12T04:51:07.106Z,457
2022-08-12T04:52:07.264Z,430
2022-08-12T04:53:08.100Z,407
2022-08-12T04:54:07.011Z,417
2022-08-12T04:55:07.900Z,419
2022-08-12T04:56:07.196Z,415
2022-08-12T04:57:07.852Z,423
2022-08-12T04:58:07.330Z,422
2022-08-12T04:59:07.630Z,417
2022-08-12T05:01:08.017Z,418
2022-08-12T05:02:09.559Z,427
2022-08-12T05:03:07.811Z,431
2022-08-12T05:04:07.349Z,426
2022-08-12T05:05:07.373Z,421
2022-08-12T05:06:07.902Z,428
2022-08-12T05:07:07.325Z,390
2022-08-12T05:08:07.563Z,410
2022-08-12T05:09:10.995Z,418
2022-08-12T05:10:07.231Z,417
2022-08-12T05:11:07.658Z,405
2022-08-12T05:12:07.086Z,421
2022-08-12T05:13:07.468Z,437
2022-08-12T05:14:07.049Z,438
2022-08-12T05:15:19.178Z,426
2022-08-12T05:16:09.337Z,417
2022-08-12T05:18:20.510Z,426
2022-08-12T05:19:12.744Z,424
2022-08-12T05:21:07.087Z,422
2022-08-12T05:22:07.521Z,426
2022-08-12T05:24:07.295Z,435
2022-08-12T05:25:07.889Z,431
2022-08-12T05:26:07.097Z,425
2022-08-12T05:27:07.246Z,424
2022-08-12T05:28:07.264Z,421
2022-08-12T05:30:05.127Z,416
2022-08-12T05:30:09.244Z,414
2022-08-12T05:31:07.585Z,417
2022-08-12T05:32:07.670Z,422
2022-08-12T05:33:07.141Z,411
2022-08-12T05:34:07.431Z,417
2022-08-12T05:35:07.475Z,421
2022-08-12T05:36:07.898Z,423
2022-08-12T05:37:07.413Z,410
2022-08-12T05:38:07.749Z,455
2022-08-12T05:39:07.326Z,408
2022-08-12T05:40:11.305Z,414
2022-08-12T05:41:07.141Z,413
2022-08-12T05:42:07.251Z,417
2022-08-12T05:43:07.652Z,415
2022-08-12T05:44:07.172Z,417
2022-08-12T05:45:07.794Z,413
2022-08-12T05:46:07.426Z,403
2022-08-12T05:47:07.053Z,404
2022-08-12T05:48:07.617Z,403
2022-08-12T05:49:07.396Z,418
2022-08-12T05:50:07.929Z,422
2022-08-12T05:51:07.421Z,418
2022-08-12T05:52:07.113Z,417
2022-08-12T05:53:07.688Z,396
2022-08-12T05:54:07.618Z,443
2022-08-12T05:55:07.211Z,415
2022-08-12T05:56:07.414Z,417
2022-08-12T05:57:07.285Z,423
2022-08-12T05:58:07.821Z,424
2022-08-12T06:00:08.494Z,432
2022-08-12T06:02:10.152Z,427
2022-08-12T06:02:12.371Z,420
2022-08-12T06:03:07.046Z,423
2022-08-12T06:04:07.458Z,426
2022-08-12T06:05:07.281Z,420
2022-08-12T06:06:07.610Z,419
2022-08-12T06:07:37.267Z,414
2022-08-12T06:08:10.040Z,415
2022-08-12T06:09:07.455Z,416
2022-08-12T06:10:07.371Z,418
2022-08-12T06:11:07.579Z,413
2022-08-12T06:12:06.929Z,422
2022-08-12T06:13:07.046Z,417
2022-08-12T06:14:12.043Z,408
2022-08-12T06:15:07.665Z,399
2022-08-12T06:16:07.144Z,397
2022-08-12T06:17:07.554Z,392
2022-08-12T06:18:13.910Z,387
2022-08-12T06:19:07.756Z,380
2022-08-12T06:20:22.774Z,397
2022-08-12T06:21:07.408Z,400
2022-08-12T06:22:07.548Z,392
2022-08-12T06:23:07.021Z,394
2022-08-12T06:24:07.182Z,393
2022-08-12T06:25:07.801Z,404
2022-08-12T06:26:07.149Z,395
2022-08-12T06:27:07.524Z,386
2022-08-12T06:28:08.437Z,394
2022-08-12T06:29:06.980Z,392
2022-08-12T06:30:14.204Z,395
2022-08-12T06:32:07.761Z,389
2022-08-12T06:33:22.108Z,391
2022-08-12T06:35:26.457Z,380
2022-08-12T06:36:07.331Z,386
2022-08-12T06:38:07.320Z,383
2022-08-12T06:39:14.811Z,391
2022-08-12T06:40:07.945Z,387
2022-08-12T06:41:07.191Z,396
2022-08-12T06:42:41.985Z,390
2022-08-12T06:43:07.901Z,385
2022-08-12T06:44:07.992Z,381
2022-08-12T06:45:07.441Z,388
2022-08-12T06:46:07.650Z,391
2022-08-12T06:47:06.974Z,395
2022-08-12T06:48:07.205Z,385
2022-08-12T06:49:08.056Z,391
2022-08-12T06:50:07.414Z,384
2022-08-12T06:51:07.299Z,383
2022-08-12T06:52:07.684Z,390
2022-08-12T06:53:06.973Z,394
2022-08-12T06:54:07.635Z,391
2022-08-12T06:55:07.240Z,374
2022-08-12T06:56:12.040Z,375
2022-08-12T06:58:06.026Z,377
2022-08-12T06:58:10.400Z,376
2022-08-12T06:59:07.224Z,364
2022-08-12T07:00:08.300Z,371
2022-08-12T07:01:07.680Z,385
2022-08-12T07:02:07.466Z,373
2022-08-12T07:03:16.355Z,369
2022-08-12T07:04:33.824Z,383
2022-08-12T07:06:07.534Z,356
2022-08-12T07:07:07.899Z,406
2022-08-12T07:08:10.260Z,383
2022-08-12T07:09:08.118Z,371
2022-08-12T07:10:08.423Z,363
2022-08-12T07:11:08.053Z,353
2022-08-12T07:12:07.602Z,365
2022-08-12T07:13:07.505Z,369
2022-08-12T07:14:12.727Z,376
2022-08-12T07:15:07.434Z,380
2022-08-12T07:16:07.131Z,383
2022-08-12T07:17:07.524Z,380
2022-08-12T07:18:07.380Z,370
2022-08-12T07:19:07.396Z,381
2022-08-12T07:20:08.006Z,398
2022-08-12T07:21:07.339Z,353
2022-08-12T07:22:07.890Z,359
2022-08-12T07:23:07.296Z,368
2022-08-12T07:24:07.753Z,376
2022-08-12T07:25:07.850Z,379
2022-08-12T07:26:07.231Z,364
2022-08-12T07:28:15.982Z,377
2022-08-12T07:29:07.770Z,388
2022-08-12T07:30:07.613Z,385
2022-08-12T07:31:07.661Z,370
2022-08-12T07:32:07.734Z,361
2022-08-12T07:33:07.821Z,370
2022-08-12T07:34:07.338Z,359
2022-08-12T07:35:07.274Z,361
2022-08-12T07:36:07.836Z,374
2022-08-12T07:37:07.336Z,365
2022-08-12T07:38:07.898Z,355
2022-08-12T07:39:07.755Z,372
2022-08-12T07:40:07.617Z,360
2022-08-12T07:42:07.741Z,355
2022-08-12T07:43:07.217Z,329
2022-08-12T07:44:07.466Z,337
2022-08-12T07:45:08.157Z,347
2022-08-12T07:46:07.420Z,346
2022-08-12T07:47:07.691Z,357
2022-08-12T07:48:07.544Z,369
2022-08-12T07:49:07.202Z,356
2022-08-12T07:50:07.602Z,341
2022-08-12T07:51:07.793Z,351
2022-08-12T07:52:06.966Z,347
2022-08-12T07:53:07.405Z,352
2022-08-12T07:54:07.673Z,351
2022-08-12T07:55:07.845Z,355
2022-08-12T07:57:07.637Z,353
2022-08-12T07:58:07.132Z,358
2022-08-12T07:59:07.298Z,364
2022-08-12T08:00:08.138Z,369
2022-08-12T08:01:06.794Z,327
2022-08-12T08:02:07.888Z,331
2022-08-12T08:03:08.012Z,345
2022-08-12T08:04:07.195Z,347
2022-08-12T08:05:07.705Z,363
2022-08-12T08:06:07.224Z,375
2022-08-12T08:07:07.522Z,370
2022-08-12T08:08:07.610Z,356
2022-08-12T08:09:07.359Z,350
2022-08-12T08:10:08.243Z,356
2022-08-12T08:11:07.510Z,361
2022-08-12T08:12:07.326Z,363
2022-08-12T08:13:21.838Z,364
2022-08-12T08:14:08.283Z,357
2022-08-12T08:15:08.052Z,366
2022-08-12T08:16:07.762Z,370
2022-08-12T08:17:07.508Z,362
2022-08-12T08:18:07.654Z,368
2022-08-12T08:19:07.053Z,370
2022-08-12T08:20:07.487Z,363
2022-08-12T08:21:08.436Z,364
2022-08-12T08:22:07.693Z,366
2022-08-12T08:23:07.270Z,362
2022-08-12T08:24:08.080Z,364
2022-08-12T08:25:34.958Z,362
2022-08-12T08:26:07.388Z,359
2022-08-12T08:27:07.688Z,358
2022-08-12T08:28:07.421Z,359
2022-08-12T08:29:07.254Z,371
2022-08-12T08:30:08.079Z,363
2022-08-12T08:31:08.080Z,356
2022-08-12T08:32:07.569Z,363
2022-08-12T08:33:20.095Z,368
2022-08-12T08:34:40.189Z,363
2022-08-12T08:35:07.640Z,362
2022-08-12T08:36:16.184Z,365
2022-08-12T08:37:07.985Z,371
2022-08-12T08:38:07.358Z,372
2022-08-12T08:39:07.724Z,376
2022-08-12T08:40:07.627Z,375
2022-08-12T08:41:07.203Z,363
2022-08-12T08:42:16.873Z,371
2022-08-12T08:43:07.300Z,378
2022-08-12T08:44:07.638Z,371
2022-08-12T08:46:07.509Z,367
2022-08-12T08:47:08.010Z,352
2022-08-12T08:48:07.322Z,354
2022-08-12T08:50:07.183Z,361
2022-08-12T08:51:07.608Z,380
2022-08-12T08:52:07.114Z,362
2022-08-12T08:53:07.511Z,344
2022-08-12T08:54:08.038Z,352
2022-08-12T08:55:06.725Z,358
2022-08-12T08:56:07.091Z,349
2022-08-12T08:57:07.312Z,344
2022-08-12T08:58:07.697Z,368
2022-08-12T08:59:07.432Z,380
2022-08-12T09:00:08.206Z,385
2022-08-12T09:01:07.876Z,382
2022-08-12T09:02:08.667Z,368
2022-08-12T09:05:09.006Z,389
2022-08-12T09:05:09.071Z,351
2022-08-12T09:05:14.302Z,370
2022-08-12T09:06:08.071Z,364
2022-08-12T09:07:17.093Z,363
2022-08-12T09:08:14.327Z,365
2022-08-12T09:10:15.553Z,370
2022-08-12T09:11:07.445Z,368
2022-08-12T09:12:11.870Z,358
2022-08-12T09:13:16.196Z,354
2022-08-12T09:14:10.906Z,356
2022-08-12T09:15:18.990Z,358
2022-08-12T09:16:07.609Z,364
2022-08-12T09:17:07.525Z,370
2022-08-12T09:18:08.975Z,357
2022-08-12T09:19:07.410Z,352
2022-08-12T09:20:08.683Z,365
2022-08-12T09:21:07.905Z,375
2022-08-12T09:22:07.137Z,377
2022-08-12T09:23:08.042Z,365
2022-08-12T09:24:10.466Z,353
2022-08-12T09:25:07.009Z,356
2022-08-12T09:26:09.530Z,359
2022-08-12T09:27:07.969Z,357
2022-08-12T09:28:10.868Z,370
2022-08-12T09:29:12.451Z,376
2022-08-12T09:30:09.995Z,367
2022-08-12T09:32:06.379Z,362
2022-08-12T09:32:09.387Z,359
2022-08-12T09:33:18.495Z,370
2022-08-12T09:34:28.650Z,374
2022-08-12T09:35:18.420Z,367
2022-08-12T09:38:20.928Z,361
2022-08-12T09:40:02.586Z,354
2022-08-12T09:41:02.067Z,358
2022-08-12T09:42:34.424Z,338
2022-08-12T09:42:40.862Z,352
2022-08-12T09:43:18.022Z,358
2022-08-12T09:45:17.784Z,365
2022-08-12T09:46:25.074Z,371
2022-08-12T09:47:10.692Z,366
2022-08-12T09:48:07.259Z,377
2022-08-12T09:49:13.412Z,378
2022-08-12T09:50:07.919Z,373
2022-08-12T09:51:17.106Z,354
2022-08-12T09:52:07.794Z,353
2022-08-12T09:53:14.760Z,344
2022-08-12T09:54:30.998Z,362
2022-08-12T09:55:07.232Z,348
2022-08-12T09:56:58.791Z,353
2022-08-12T09:58:07.739Z,355
2022-08-12T09:58:57.694Z,360
2022-08-12T09:59:08.412Z,357
2022-08-12T10:00:15.193Z,374
2022-08-12T10:02:45.267Z,358
2022-08-12T10:03:07.605Z,366
2022-08-12T10:04:07.625Z,365
2022-08-12T10:05:13.070Z,383
2022-08-12T10:06:27.639Z,385
2022-08-12T10:07:13.007Z,368
2022-08-12T10:08:07.393Z,373
2022-08-12T10:09:08.596Z,363
2022-08-12T10:10:07.416Z,347
2022-08-12T10:11:07.626Z,342
2022-08-12T10:12:12.160Z,355
2022-08-12T10:13:14.554Z,360
2022-08-12T10:14:07.724Z,364
2022-08-12T10:15:07.329Z,368
2022-08-12T10:16:07.177Z,329
2022-08-12T10:17:08.539Z,397
2022-08-12T10:18:08.115Z,369
2022-08-12T10:19:17.431Z,363
2022-08-12T10:20:09.878Z,352
2022-08-12T10:21:07.589Z,344
2022-08-12T10:22:16.810Z,342
2022-08-12T10:23:07.495Z,338
2022-08-12T10:24:07.311Z,341
2022-08-12T10:25:17.909Z,355
2022-08-12T10:26:35.332Z,352
2022-08-12T10:27:07.439Z,369
2022-08-12T10:28:16.213Z,359
2022-08-12T10:30:01.439Z,388
2022-08-12T10:30:41.487Z,376
2022-08-12T10:31:15.927Z,351
2022-08-12T10:32:21.273Z,349
2022-08-12T10:33:19.059Z,347
2022-08-12T10:34:14.932Z,344
2022-08-12T10:35:07.489Z,348
2022-08-12T10:36:07.904Z,355
2022-08-12T10:37:22.605Z,364
2022-08-12T10:38:33.757Z,378
2022-08-12T10:40:00.287Z,371
2022-08-12T10:40:10.048Z,360
2022-08-12T10:41:07.094Z,347
2022-08-12T10:42:07.057Z,353
2022-08-12T10:43:08.064Z,358
2022-08-12T10:44:07.079Z,352
2022-08-12T10:45:07.373Z,361
2022-08-12T10:46:13.483Z,353
2022-08-12T10:48:01.202Z,345
2022-08-12T10:48:21.147Z,340
2022-08-12T10:50:04.999Z,323
2022-08-12T10:50:28.504Z,320
2022-08-12T10:52:04.803Z,331
2022-08-12T10:52:34.449Z,342
2022-08-12T10:53:09.112Z,332
2022-08-12T10:54:06.996Z,338
2022-08-12T10:55:13.400Z,336
2022-08-12T10:56:07.054Z,338
2022-08-12T10:57:07.465Z,345
2022-08-12T10:58:15.195Z,346
2022-08-12T10:59:10.874Z,354
2022-08-12T11:00:35.536Z,364
2022-08-12T11:01:50.143Z,365
2022-08-12T11:04:25.741Z,367
2022-08-12T11:04:26.119Z,344
2022-08-12T11:04:28.128Z,368
2022-08-12T11:07:05.912Z,343
2022-08-12T11:07:09.657Z,349
2022-08-12T11:08:36.831Z,346
2022-08-12T11:09:10.714Z,350
2022-08-12T11:10:07.075Z,353
2022-08-12T11:11:13.384Z,371
2022-08-12T11:12:34.900Z,364
2022-08-12T11:13:09.148Z,354
2022-08-12T11:14:09.844Z,352
2022-08-12T11:15:14.758Z,340
2022-08-12T11:16:21.963Z,311
2022-08-12T11:17:34.736Z,340
2022-08-12T11:18:07.580Z,351
2022-08-12T11:19:07.865Z,341
2022-08-12T11:20:07.611Z,337
2022-08-12T11:21:07.371Z,349
2022-08-12T11:22:07.064Z,353
2022-08-12T11:23:36.175Z,364
2022-08-12T11:24:07.697Z,368
2022-08-12T11:25:10.593Z,352
2022-08-12T11:26:07.938Z,358
2022-08-12T11:27:11.590Z,356
2022-08-12T11:28:07.053Z,366
2022-08-12T11:29:22.679Z,362
2022-08-12T11:30:30.656Z,355
2022-08-12T11:31:07.301Z,348
2022-08-12T11:32:08.012Z,347
2022-08-12T11:34:51.484Z,356
2022-08-12T11:36:10.789Z,346
2022-08-12T11:39:07.815Z,338
2022-08-12T11:42:07.621Z,347
2022-08-12T11:43:20.109Z,341
2022-08-12T11:44:42.779Z,345
2022-08-12T11:45:10.345Z,344
2022-08-12T11:46:07.144Z,342
2022-08-12T11:47:09.462Z,348
2022-08-12T11:48:07.386Z,360
2022-08-12T11:49:07.386Z,317
2022-08-12T11:50:08.004Z,325
2022-08-12T11:51:10.315Z,335
2022-08-12T11:52:17.547Z,339
2022-08-12T11:53:59.509Z,337
2022-08-12T11:54:08.581Z,332
2022-08-12T11:55:07.608Z,336
2022-08-12T11:56:07.168Z,335
2022-08-12T11:58:17.281Z,356
2022-08-12T11:59:34.776Z,371
2022-08-12T12:02:01.679Z,328
2022-08-12T12:02:09.229Z,318
2022-08-12T12:03:07.798Z,324
2022-08-12T12:04:07.161Z,335
2022-08-12T12:05:07.360Z,334
2022-08-12T12:06:08.993Z,329
2022-08-12T12:08:41.063Z,348
2022-08-12T12:09:08.147Z,366
2022-08-12T12:10:07.656Z,351
2022-08-12T12:11:09.277Z,358
2022-08-12T12:12:07.471Z,351
2022-08-12T12:13:22.864Z,360
2022-08-12T12:14:11.532Z,356
2022-08-12T12:15:09.513Z,366
2022-08-12T12:16:07.395Z,355
2022-08-12T12:17:09.159Z,356
2022-08-12T12:19:07.418Z,359
2022-08-12T12:20:07.210Z,352
2022-08-12T12:21:08.336Z,315
2022-08-12T12:22:07.604Z,393
2022-08-12T12:23:07.237Z,371
2022-08-12T12:24:07.365Z,346
2022-08-12T12:25:12.805Z,344
2022-08-12T12:26:18.503Z,362
2022-08-12T12:27:07.147Z,355
2022-08-12T12:29:11.212Z,358
2022-08-12T12:30:18.338Z,367
2022-08-12T12:31:15.154Z,354
2022-08-12T12:32:12.021Z,349
2022-08-12T12:33:07.935Z,363
2022-08-12T12:34:07.466Z,353
2022-08-12T12:35:13.486Z,348
2022-08-12T12:36:20.780Z,362
2022-08-12T12:37:07.721Z,357
2022-08-12T12:38:12.617Z,346
2022-08-12T12:39:10.580Z,350
2022-08-12T12:40:07.659Z,356
2022-08-12T12:41:14.637Z,348
2022-08-12T12:42:43.005Z,349
2022-08-12T12:43:07.846Z,354
2022-08-12T12:44:07.274Z,328
2022-08-12T12:45:19.741Z,351
2022-08-12T12:47:28.739Z,356
2022-08-12T12:48:07.958Z,361
2022-08-12T12:49:11.186Z,362
2022-08-12T12:50:07.548Z,357
2022-08-12T12:51:07.198Z,369
2022-08-12T12:52:19.727Z,363
2022-08-12T12:53:07.936Z,359
2022-08-12T12:54:10.024Z,350
2022-08-12T12:55:07.345Z,347
2022-08-12T12:56:07.328Z,361
2022-08-12T12:57:07.852Z,363
2022-08-12T12:58:07.169Z,366
2022-08-12T12:59:07.218Z,365
2022-08-12T13:01:25.660Z,363
2022-08-12T13:02:08.053Z,361
2022-08-12T13:03:08.006Z,362
2022-08-12T13:04:07.285Z,356
2022-08-12T13:05:11.825Z,385
2022-08-12T13:06:07.171Z,359
2022-08-12T13:07:07.213Z,361
2022-08-12T13:08:07.901Z,360
2022-08-12T13:09:11.180Z,349
2022-08-12T13:10:07.586Z,336
2022-08-12T13:11:07.350Z,342
2022-08-12T13:12:08.166Z,341
2022-08-12T13:14:07.333Z,356
2022-08-12T13:14:12.304Z,363
2022-08-12T13:15:07.279Z,360
2022-08-12T13:16:14.278Z,365
2022-08-12T13:17:08.014Z,368
2022-08-12T13:18:07.479Z,363
2022-08-12T13:19:07.794Z,348
2022-08-12T13:20:07.822Z,350
2022-08-12T13:21:07.467Z,356
2022-08-12T13:22:08.115Z,370
2022-08-12T13:23:36.326Z,352
2022-08-12T13:24:10.498Z,348
2022-08-12T13:25:09.151Z,342
2022-08-12T13:26:14.506Z,326
2022-08-12T13:27:07.358Z,341
2022-08-12T13:28:07.924Z,358
2022-08-12T13:29:11.255Z,367
2022-08-12T13:30:11.009Z,366
2022-08-12T13:31:07.691Z,381
2022-08-12T13:32:19.354Z,384
2022-08-12T13:33:07.703Z,380
2022-08-12T13:34:33.656Z,367
2022-08-12T13:35:19.983Z,337
2022-08-12T13:36:10.317Z,417
2022-08-12T13:37:09.176Z,393
2022-08-12T13:38:07.611Z,370
2022-08-12T13:39:07.800Z,350
2022-08-12T13:40:07.859Z,334
2022-08-12T13:41:11.193Z,338
2022-08-12T13:42:07.491Z,343
2022-08-12T13:43:07.133Z,347
2022-08-12T13:44:10.445Z,339
2022-08-12T13:45:07.263Z,352
2022-08-12T13:46:07.377Z,303
2022-08-12T13:47:10.324Z,298
2022-08-12T13:48:07.570Z,306
2022-08-12T13:49:07.274Z,308
2022-08-12T13:50:09.403Z,318
2022-08-12T13:51:07.095Z,331
2022-08-12T13:52:07.760Z,326
2022-08-12T13:53:24.841Z,348
2022-08-12T13:54:09.927Z,363
2022-08-12T13:55:07.075Z,365
2022-08-12T13:56:07.625Z,354
2022-08-12T13:57:10.941Z,347
2022-08-12T13:58:12.651Z,357
2022-08-12T13:59:08.066Z,371
2022-08-12T14:00:08.187Z,367
2022-08-12T14:01:09.115Z,364
2022-08-12T14:02:07.473Z,366
2022-08-12T14:03:07.271Z,364
2022-08-12T14:05:30.143Z,363
2022-08-12T14:06:07.706Z,366
2022-08-12T14:07:07.583Z,345
2022-08-12T14:08:07.176Z,356
2022-08-12T14:09:17.875Z,350
2022-08-12T14:10:07.928Z,345
2022-08-12T14:11:07.651Z,355
2022-08-12T14:12:07.374Z,352
2022-08-12T14:13:10.370Z,349
2022-08-12T14:14:12.666Z,351
2022-08-12T14:15:07.635Z,360
2022-08-12T14:17:08.140Z,354
2022-08-12T14:18:07.793Z,343
2022-08-12T14:20:07.137Z,355
2022-08-12T14:21:07.464Z,365
2022-08-12T14:22:07.556Z,354
2022-08-12T14:23:16.608Z,344
2022-08-12T14:24:09.533Z,337
2022-08-12T14:25:07.733Z,320
2022-08-12T14:26:11.726Z,313
2022-08-12T14:27:09.196Z,334
2022-08-12T14:28:07.763Z,358
2022-08-12T14:29:06.982Z,362
2022-08-12T14:30:15.538Z,364
2022-08-12T14:31:18.516Z,350
2022-08-12T14:32:07.631Z,326
2022-08-12T14:33:10.849Z,336
2022-08-12T14:34:07.488Z,352
2022-08-12T14:35:09.225Z,366
2022-08-12T14:36:07.184Z,369
2022-08-12T14:37:07.194Z,349
2022-08-12T14:38:07.722Z,355
2022-08-12T14:39:07.647Z,353
2022-08-12T14:40:07.404Z,354